Waynesville, Ohio
Current Conditions -  °F | °C
As of 9:53 AM on Wednesday 26 Nov 2014 (Local Time) from KMGY Reporting Station
Overcast Overcast  
Wind Chill: 24°   Ceiling: 1200
Heat Index: 30°   Visibility: 7mi
Dew Point: 26°   Wind: 6mph
Humidity: 85%   Direction: 350°N
Pressure: 30.13"   Gusts: NA
Location:  39.53°N, 84.09°W
Report Text: KMGY 261453Z AUTO 35005KT 7SM OVC012 M01/M03 A3013 RMK AO2 SLP211 T10111033 51010
Loading
Personal Weather Stations






























Interactive Weather Map New forecast layout! Learn more

10-Day Weather Forecast

Advertisements
Track Severe Weather on mobile